Time;durP1;ratioP1;P1;durP2;ratioP2;P2;SDS_P1;SDS_P2;PMS_P1;PMS_P2;Temp;Humidity;BMP_temperature;BMP_pressure;BME280_temperature;BME280_humidity;BME280_pressure;Samples;Min_cycle;Max_cycle;Signal;HPM_P1;HPM_P2
2022/03/26 00:00:17;;;;;;;7.63;3.45;;;;;;;;;;7328559;19;154111;-15
2022/03/26 00:02:49;;;;;;;5.82;3.72;;;;;;;;;;7330015;19;153647;-15
2022/03/26 00:05:21;;;;;;;9.60;3.77;;;;;;;;;;7331385;19;161825;-15
2022/03/26 00:07:52;;;;;;;6.68;3.70;;;;;;;;;;7331569;19;162366;-15
2022/03/26 00:10:26;;;;;;;4.47;3.50;;;;;;;;;;7331935;19;154055;-16
2022/03/26 00:12:57;;;;;;;7.25;3.90;;;;;;;;;;7331481;19;153554;-16
2022/03/26 00:15:29;;;;;;;4.53;3.30;;;;;;;;;;7331217;19;162120;-12
2022/03/26 00:18:00;;;;;;;5.43;3.95;;;;;;;;;;7331188;19;162346;-13
2022/03/26 00:20:32;;;;;;;3.83;3.40;;;;;;;;;;7331489;19;153966;-14
2022/03/26 00:23:04;;;;;;;3.67;3.38;;;;;;;;;;7329770;19;153806;-13
2022/03/26 00:25:37;;;;;;;3.50;3.20;;;;;;;;;;7329149;19;161714;-15
2022/03/26 00:28:09;;;;;;;4.35;2.95;;;;;;;;;;7331135;19;162421;-14
2022/03/26 00:30:40;;;;;;;6.82;4.38;;;;;;;;;;7330265;19;153987;-14
2022/03/26 00:33:12;;;;;;;4.78;3.22;;;;;;;;;;7331472;19;153514;-13
2022/03/26 00:35:54;;;;;;;4.40;3.88;;;;;;;;;;7330829;19;162000;-13
2022/03/26 00:38:26;;;;;;;5.40;4.18;;;;;;;;;;7330875;19;162346;-15
2022/03/26 00:41:00;;;;;;;4.03;3.38;;;;;;;;;;7329829;19;154055;-15
2022/03/26 00:43:31;;;;;;;5.97;3.83;;;;;;;;;;7328958;19;153531;-14
2022/03/26 00:46:02;;;;;;;5.03;3.45;;;;;;;;;;7330396;19;161830;-13
2022/03/26 00:48:33;;;;;;;4.38;3.25;;;;;;;;;;7329136;19;162489;-16
2022/03/26 00:51:05;;;;;;;5.28;3.75;;;;;;;;;;7330639;19;153946;-16
2022/03/26 00:53:36;;;;;;;3.83;3.40;;;;;;;;;;7330771;19;153515;-16
2022/03/26 00:56:10;;;;;;;4.85;4.15;;;;;;;;;;7330045;19;162031;-15
2022/03/26 00:58:41;;;;;;;4.15;3.40;;;;;;;;;;7328979;19;162395;-16
2022/03/26 01:01:15;;;;;;;8.30;4.00;;;;;;;;;;7329374;19;154017;-17
2022/03/26 01:03:46;;;;;;;4.97;3.42;;;;;;;;;;7328161;19;153569;-15
2022/03/26 01:06:18;;;;;;;6.85;3.97;;;;;;;;;;7330703;19;163064;-16
2022/03/26 01:08:52;;;;;;;4.20;3.80;;;;;;;;;;7331760;19;162564;-15
2022/03/26 01:11:26;;;;;;;5.13;4.28;;;;;;;;;;7329963;19;153983;-16
2022/03/26 01:13:57;;;;;;;5.75;4.13;;;;;;;;;;7330024;19;153677;-15
2022/03/26 01:16:30;;;;;;;7.38;4.88;;;;;;;;;;7329859;19;161946;-16
2022/03/26 01:19:01;;;;;;;11.07;5.45;;;;;;;;;;7329767;19;162705;-15
2022/03/26 01:21:33;;;;;;;10.85;4.65;;;;;;;;;;7330150;19;153898;-17
2022/03/26 11:22:25;;;;;;;11.65;7.22;;;;;;;;;;7371471;19;132925;-14
2022/03/26 11:25:42;;;;;;;19.27;9.15;;;;;;;;;;7368370;19;153599;-14
2022/03/26 11:28:29;;;;;;;20.00;10.13;;;;;;;;;;7364681;19;161966;-14
2022/03/26 11:31:04;;;;;;;18.45;9.98;;;;;;;;;;7362585;19;162753;-15
2022/03/26 11:33:38;;;;;;;18.83;9.77;;;;;;;;;;7364756;19;153875;-15
2022/03/26 11:36:10;;;;;;;17.23;8.85;;;;;;;;;;7364608;19;153305;-14
2022/03/26 11:38:55;;;;;;;20.13;10.17;;;;;;;;;;7363810;19;162003;-14
2022/03/26 11:41:34;;;;;;;12.38;8.93;;;;;;;;;;7367893;19;162637;-14
2022/03/26 11:44:07;;;;;;;17.45;9.50;;;;;;;;;;7363637;19;153802;-14
2022/03/26 11:52:18;;;;;;;15.43;8.48;;;;;;;;;;7362443;19;162439;-14
2022/03/26 11:54:58;;;;;;;18.67;9.50;;;;;;;;;;7366089;19;153944;-14
2022/03/26 11:57:31;;;;;;;17.13;8.73;;;;;;;;;;7367187;19;153563;-15
2022/03/26 12:00:03;;;;;;;16.67;8.52;;;;;;;;;;7366432;19;161743;-14
2022/03/26 12:02:49;;;;;;;15.77;8.93;;;;;;;;;;7366795;19;162560;-14
2022/03/26 12:08:19;;;;;;;17.77;9.00;;;;;;;;;;7366681;19;153619;-14
2022/03/26 12:10:53;;;;;;;18.90;8.90;;;;;;;;;;7361774;19;161752;-15
2022/03/26 12:13:25;;;;;;;15.20;7.63;;;;;;;;;;7362789;19;162354;-15
2022/03/26 12:16:04;;;;;;;17.63;9.07;;;;;;;;;;7363402;19;154005;-14
2022/03/26 12:18:38;;;;;;;13.00;8.07;;;;;;;;;;7363339;19;153779;-15
2022/03/26 12:21:21;;;;;;;18.35;8.85;;;;;;;;;;7352776;19;161748;-15
2022/03/26 12:23:52;;;;;;;21.02;11.77;;;;;;;;;;7334255;19;162500;-14
2022/03/26 12:26:26;;;;;;;24.20;12.90;;;;;;;;;;7334194;19;153944;-14
2022/03/26 12:28:57;;;;;;;18.85;10.30;;;;;;;;;;7332630;19;153659;-15
2022/03/26 12:31:32;;;;;;;21.20;10.38;;;;;;;;;;7334758;19;161758;-14
2022/03/26 12:34:05;;;;;;;41.25;20.25;;;;;;;;;;7337631;19;162801;-14
2022/03/26 12:36:40;;;;;;;32.67;17.75;;;;;;;;;;7335215;19;154019;-14
2022/03/26 12:39:14;;;;;;;29.17;14.75;;;;;;;;;;7335000;19;154011;-14
2022/03/26 12:41:53;;;;;;;30.77;15.18;;;;;;;;;;7336869;19;162142;-15
2022/03/26 12:44:24;;;;;;;30.92;13.88;;;;;;;;;;7333723;19;162675;-16
2022/03/26 12:46:59;;;;;;;24.67;12.75;;;;;;;;;;7333901;19;153961;-14
2022/03/26 12:49:30;;;;;;;24.33;12.73;;;;;;;;;;7333933;19;153314;-15
2022/03/26 12:52:01;;;;;;;29.15;14.15;;;;;;;;;;7331222;19;161765;-20
2022/03/26 12:54:34;;;;;;;23.10;12.57;;;;;;;;;;7333307;19;162329;-16
2022/03/26 12:57:10;;;;;;;23.88;13.25;;;;;;;;;;7333774;19;154032;-15
2022/03/26 12:59:39;;;;;;;22.17;12.02;;;;;;;;;;7333773;19;153602;-15
2022/03/26 13:02:12;;;;;;;25.85;12.75;;;;;;;;;;7333321;19;161723;-16
2022/03/26 13:04:44;;;;;;;24.02;12.52;;;;;;;;;;7335574;19;162392;-15
2022/03/26 13:07:15;;;;;;;26.35;11.75;;;;;;;;;;7338160;19;153922;-16
2022/03/26 13:09:46;;;;;;;25.90;12.35;;;;;;;;;;7331463;19;153785;-15
2022/03/26 13:12:32;;;;;;;694.33;373.65;;;;;;;;;;7329675;19;161785;-16
2022/03/26 13:15:10;;;;;;;697.38;378.10;;;;;;;;;;7329968;19;163270;-15
2022/03/26 13:17:41;;;;;;;688.42;363.45;;;;;;;;;;7331805;19;154064;-16
2022/03/26 13:20:25;;;;;;;650.05;343.92;;;;;;;;;;7329725;19;153766;-14
2022/03/26 13:23:00;;;;;;;585.40;310.73;;;;;;;;;;7328194;19;162333;-15
2022/03/26 13:25:36;;;;;;;532.25;275.00;;;;;;;;;;7331330;19;162607;-15
2022/03/26 13:28:21;;;;;;;509.40;260.15;;;;;;;;;;7335592;19;154053;-15
2022/03/26 13:30:54;;;;;;;459.95;229.88;;;;;;;;;;7331934;19;153643;-14
2022/03/26 13:33:28;;;;;;;461.95;235.52;;;;;;;;;;7329362;19;162129;-14
2022/03/26 13:36:02;;;;;;;462.05;228.02;;;;;;;;;;7331757;19;163303;-13
2022/03/26 13:38:40;;;;;;;453.95;228.73;;;;;;;;;;7332349;19;154352;-15
2022/03/26 13:41:19;;;;;;;460.92;229.85;;;;;;;;;;7332005;19;153717;-16
2022/03/26 13:43:54;;;;;;;466.08;227.00;;;;;;;;;;7331434;19;161771;-14
2022/03/26 13:46:26;;;;;;;458.80;228.20;;;;;;;;;;7331624;19;162367;-15
2022/03/26 13:49:00;;;;;;;468.48;230.20;;;;;;;;;;7331915;19;153899;-14
2022/03/26 13:51:34;;;;;;;457.63;225.50;;;;;;;;;;7331012;19;153954;-16
2022/03/26 13:54:06;;;;;;;;;;;;;;;;;;7330995;19;162291;-15
2022/03/26 13:56:38;;;;;;;436.80;211.27;;;;;;;;;;7331662;19;162733;-14
2022/03/26 13:59:12;;;;;;;426.45;211.27;;;;;;;;;;7331977;19;153946;-16
2022/03/26 14:01:44;;;;;;;441.75;213.98;;;;;;;;;;7331870;19;153690;-15
2022/03/26 14:04:24;;;;;;;437.38;210.70;;;;;;;;;;7331436;19;162095;-15
2022/03/26 14:06:55;;;;;;;414.02;204.82;;;;;;;;;;7331201;19;162509;-15
2022/03/26 14:09:31;;;;;;;413.58;197.30;;;;;;;;;;7331528;19;154385;-15
2022/03/26 14:12:03;;;;;;;409.23;198.43;;;;;;;;;;7330127;19;153698;-14
2022/03/26 14:14:37;;;;;;;394.87;186.83;;;;;;;;;;7329825;19;162052;-14
2022/03/26 14:17:08;;;;;;;402.65;191.02;;;;;;;;;;7331063;19;162336;-14
2022/03/26 14:19:39;;;;;;;393.35;184.07;;;;;;;;;;7330764;19;154129;-15
2022/03/26 14:22:13;;;;;;;391.58;188.45;;;;;;;;;;7331009;19;153659;-14
2022/03/26 14:24:45;;;;;;;379.27;180.63;;;;;;;;;;7330808;19;161842;-16
2022/03/26 14:27:16;;;;;;;381.08;181.45;;;;;;;;;;7330562;19;162554;-16
2022/03/26 14:29:50;;;;;;;356.38;174.95;;;;;;;;;;7331097;19;154173;-15
2022/03/26 14:32:23;;;;;;;339.50;162.25;;;;;;;;;;7329278;19;153696;-15
2022/03/26 14:34:55;;;;;;;356.92;162.55;;;;;;;;;;7330385;19;161843;-15
2022/03/26 14:37:26;;;;;;;351.27;161.38;;;;;;;;;;7330303;19;162519;-15
2022/03/26 14:39:57;;;;;;;335.42;155.85;;;;;;;;;;7330730;19;154098;-15
2022/03/26 14:42:28;;;;;;;329.98;157.48;;;;;;;;;;7330609;19;153753;-14
2022/03/26 14:45:03;;;;;;;324.73;154.82;;;;;;;;;;7329350;19;161957;-14
2022/03/26 14:47:35;;;;;;;319.67;154.63;;;;;;;;;;7329147;19;162024;-15
2022/03/26 14:50:08;;;;;;;313.33;146.27;;;;;;;;;;7330170;19;154068;-14
2022/03/26 14:52:43;;;;;;;320.02;151.23;;;;;;;;;;7328599;19;154038;-16
2022/03/26 14:55:15;;;;;;;311.88;144.52;;;;;;;;;;7329799;19;161832;-15
2022/03/26 14:57:46;;;;;;;314.13;150.27;;;;;;;;;;7329792;19;162532;-16
2022/03/26 15:00:20;;;;;;;312.63;148.75;;;;;;;;;;7329108;19;154087;-15
2022/03/26 15:02:52;;;;;;;314.00;144.90;;;;;;;;;;7329834;19;153786;-15
2022/03/26 15:05:24;;;;;;;285.77;134.85;;;;;;;;;;7329166;19;161941;-15
2022/03/26 15:07:57;;;;;;;296.70;139.23;;;;;;;;;;7329300;19;162343;-16
2022/03/26 15:10:29;;;;;;;295.00;139.60;;;;;;;;;;7329543;19;153970;-15
2022/03/26 15:13:00;;;;;;;287.20;137.83;;;;;;;;;;7327996;19;154077;-15
2022/03/26 15:15:34;;;;;;;278.05;136.57;;;;;;;;;;7329177;19;161834;-14
2022/03/26 15:18:06;;;;;;;278.23;128.02;;;;;;;;;;7329300;19;162521;-14
2022/03/26 15:20:38;;;;;;;285.65;136.50;;;;;;;;;;7328061;19;153903;-15
2022/03/26 15:23:09;;;;;;;281.25;129.23;;;;;;;;;;7329437;19;153800;-15
2022/03/26 15:25:41;;;;;;;273.10;132.85;;;;;;;;;;7328969;19;161964;-15
2022/03/26 15:28:12;;;;;;;271.17;129.75;;;;;;;;;;7328694;19;162530;-13
2022/03/26 15:30:46;;;;;;;257.77;128.18;;;;;;;;;;7329056;19;153919;-16
2022/03/26 15:33:18;;;;;;;264.20;130.10;;;;;;;;;;7327255;19;153706;-15
2022/03/26 15:35:49;;;;;;;257.08;125.47;;;;;;;;;;7328655;19;161807;-17
2022/03/26 15:38:22;;;;;;;248.93;118.13;;;;;;;;;;7328362;19;162623;-15
2022/03/26 15:40:53;;;;;;;253.52;123.93;;;;;;;;;;7327401;19;154326;-14
2022/03/26 15:43:25;;;;;;;253.95;121.97;;;;;;;;;;7328644;19;153705;-15
2022/03/26 15:45:59;;;;;;;244.25;122.15;;;;;;;;;;7328303;19;162094;-15
2022/03/26 15:48:31;;;;;;;236.73;118.78;;;;;;;;;;7328320;19;162422;-14
2022/03/26 15:51:02;;;;;;;251.75;121.05;;;;;;;;;;7328537;19;154008;-13
2022/03/26 15:53:34;;;;;;;250.15;118.38;;;;;;;;;;7326834;19;153669;-14
2022/03/26 15:56:05;;;;;;;245.25;119.15;;;;;;;;;;7328202;19;161795;-16
2022/03/26 15:58:37;;;;;;;235.77;117.35;;;;;;;;;;7335253;19;162474;-15
2022/03/26 16:01:11;;;;;;;238.25;118.20;;;;;;;;;;7335450;19;153958;-16
2022/03/26 16:03:42;;;;;;;236.23;116.38;;;;;;;;;;7335264;19;153737;-15
2022/03/26 16:06:15;;;;;;;188.68;95.38;;;;;;;;;;7334883;19;162035;-15
2022/03/26 16:08:47;;;;;;;208.32;101.25;;;;;;;;;;7334420;19;162326;-14
2022/03/26 16:11:18;;;;;;;238.57;104.68;;;;;;;;;;7334869;19;153977;-14
2022/03/26 16:13:50;;;;;;;1353.22;336.92;;;;;;;;;;7333602;19;153804;-15
2022/03/26 16:16:27;;;;;;;1176.13;386.80;;;;;;;;;;7334331;19;162103;-15
2022/03/26 16:18:58;;;;;;;1071.63;353.13;;;;;;;;;;7334667;19;162349;-14
2022/03/26 16:21:30;;;;;;;1019.58;346.02;;;;;;;;;;7332587;19;154191;-15
2022/03/26 16:24:01;;;;;;;1045.95;354.10;;;;;;;;;;7333660;19;153736;-14
2022/03/26 16:26:35;;;;;;;999.05;343.98;;;;;;;;;;7334248;19;161975;-14
2022/03/26 16:29:07;;;;;;;993.33;349.42;;;;;;;;;;7334405;19;162546;-15
2022/03/26 16:31:41;;;;;;;927.75;335.00;;;;;;;;;;7334767;19;154142;-15
2022/03/26 16:34:12;;;;;;;456.55;178.40;;;;;;;;;;7331566;19;153766;-14
2022/03/26 16:36:44;;;;;;;632.80;231.52;;;;;;;;;;7334000;19;161765;-15
2022/03/26 16:39:18;;;;;;;503.52;158.40;;;;;;;;;;7332672;19;162477;-13
2022/03/26 16:41:49;;;;;;;464.52;149.88;;;;;;;;;;7334150;19;154131;-14
2022/03/26 16:44:20;;;;;;;443.63;134.18;;;;;;;;;;7333863;19;153706;-13
2022/03/26 16:46:55;;;;;;;401.33;126.13;;;;;;;;;;7333836;19;161950;-14
2022/03/26 16:49:26;;;;;;;369.85;113.40;;;;;;;;;;7333431;19;162756;-13
2022/03/26 16:51:57;;;;;;;395.33;117.57;;;;;;;;;;7333985;19;154159;-13
2022/03/26 16:54:29;;;;;;;372.83;105.97;;;;;;;;;;7332110;19;153671;-13
2022/03/26 16:57:00;;;;;;;410.42;127.38;;;;;;;;;;7333385;19;161585;-14
2022/03/26 16:59:31;;;;;;;407.95;129.73;;;;;;;;;;7333343;19;162684;-13
2022/03/26 17:02:06;;;;;;;452.50;147.18;;;;;;;;;;7333462;19;153974;-14
2022/03/26 17:04:37;;;;;;;415.98;155.05;;;;;;;;;;7333337;19;153776;-14
2022/03/26 17:07:09;;;;;;;448.67;178.38;;;;;;;;;;7332888;19;162215;-15
2022/03/26 17:09:40;;;;;;;373.15;140.02;;;;;;;;;;7333211;19;162698;-15
2022/03/26 17:12:12;;;;;;;303.05;118.32;;;;;;;;;;7333486;19;154050;-14
2022/03/26 17:14:43;;;;;;;260.95;96.78;;;;;;;;;;7331384;19;153676;-15
2022/03/26 17:17:17;;;;;;;263.38;98.13;;;;;;;;;;7333023;19;161801;-15
2022/03/26 17:19:48;;;;;;;262.05;99.45;;;;;;;;;;7332483;19;162387;-15
2022/03/26 17:22:20;;;;;;;311.83;118.88;;;;;;;;;;7333216;19;153746;-15
2022/03/26 17:24:52;;;;;;;372.95;143.60;;;;;;;;;;7333282;19;153687;-15
2022/03/26 17:27:24;;;;;;;342.88;137.20;;;;;;;;;;7332648;19;162140;-14
2022/03/26 17:29:55;;;;;;;331.33;127.18;;;;;;;;;;7332525;19;162287;-15
2022/03/26 17:32:29;;;;;;;297.58;119.30;;;;;;;;;;7332656;19;154144;-14
2022/03/26 17:35:00;;;;;;;308.33;118.20;;;;;;;;;;7331048;19;153775;-15
2022/03/26 17:37:32;;;;;;;277.73;109.28;;;;;;;;;;7331101;19;161852;-15
2022/03/26 17:40:03;;;;;;;270.55;107.28;;;;;;;;;;7332200;19;162378;-15
2022/03/26 17:42:35;;;;;;;261.63;106.20;;;;;;;;;;7332484;19;153936;-15
2022/03/26 17:45:07;;;;;;;257.20;104.57;;;;;;;;;;7332272;19;153720;-15
2022/03/26 17:47:41;;;;;;;239.27;104.13;;;;;;;;;;7332243;19;162068;-15
2022/03/26 17:50:13;;;;;;;258.85;103.82;;;;;;;;;;7331951;19;162478;-13
2022/03/26 17:52:44;;;;;;;254.20;99.93;;;;;;;;;;7335812;19;154061;-15
2022/03/26 17:55:16;;;;;;;247.20;100.10;;;;;;;;;;7331398;19;153709;-15
2022/03/26 17:57:47;;;;;;;230.70;97.35;;;;;;;;;;7336101;19;161902;-15
2022/03/26 18:00:19;;;;;;;243.90;100.18;;;;;;;;;;7331657;19;162259;-16
2022/03/26 18:02:53;;;;;;;219.13;94.37;;;;;;;;;;7332112;19;153978;-14
2022/03/26 18:05:24;;;;;;;218.90;95.07;;;;;;;;;;7332157;19;153778;-14
2022/03/26 18:07:56;;;;;;;214.05;93.40;;;;;;;;;;7334732;19;161790;-15
2022/03/26 18:10:27;;;;;;;218.88;88.30;;;;;;;;;;7331089;19;162353;-14
2022/03/26 18:12:58;;;;;;;208.73;89.18;;;;;;;;;;7331735;19;154069;-15
2022/03/26 18:15:30;;;;;;;228.00;91.95;;;;;;;;;;7329714;19;153687;-15
2022/03/26 18:18:07;;;;;;;207.70;86.55;;;;;;;;;;7331347;19;161998;-16
2022/03/26 18:20:38;;;;;;;210.25;85.80;;;;;;;;;;7328232;19;162655;-16
2022/03/26 18:23:09;;;;;;;191.77;82.00;;;;;;;;;;7331528;19;154178;-14
2022/03/26 18:25:41;;;;;;;183.38;80.30;;;;;;;;;;7331527;19;153583;-16
2022/03/26 18:28:12;;;;;;;193.32;81.18;;;;;;;;;;7331098;19;161976;-15
2022/03/26 18:30:44;;;;;;;183.98;80.35;;;;;;;;;;7330911;19;162336;-14
2022/03/26 18:33:17;;;;;;;189.32;80.22;;;;;;;;;;7331943;19;154066;-15
2022/03/26 18:35:49;;;;;;;179.52;77.47;;;;;;;;;;7333374;19;153696;-14
2022/03/26 18:38:20;;;;;;;184.05;77.57;;;;;;;;;;7330523;19;161931;-14
2022/03/26 18:40:51;;;;;;;170.35;74.00;;;;;;;;;;7330626;19;162481;-16
2022/03/26 18:43:23;;;;;;;169.70;75.30;;;;;;;;;;7331004;19;153957;-15
2022/03/26 18:45:55;;;;;;;166.63;74.20;;;;;;;;;;7330891;19;153612;-15
2022/03/26 18:48:28;;;;;;;159.45;68.60;;;;;;;;;;7330202;19;161604;-14
2022/03/26 18:51:00;;;;;;;163.35;71.03;;;;;;;;;;7330226;19;162446;-14
2022/03/26 18:53:31;;;;;;;140.35;62.90;;;;;;;;;;7332119;19;154098;-15
2022/03/26 18:56:02;;;;;;;142.35;62.70;;;;;;;;;;7331677;19;153699;-14
2022/03/26 18:58:34;;;;;;;139.30;60.83;;;;;;;;;;7333967;19;161518;-16
2022/03/26 19:01:05;;;;;;;134.18;58.95;;;;;;;;;;7329863;19;162442;-14
2022/03/26 19:03:39;;;;;;;115.65;56.65;;;;;;;;;;7331809;19;154163;-15
2022/03/26 19:06:10;;;;;;;123.10;55.53;;;;;;;;;;7334115;19;153591;-13
2022/03/26 19:08:41;;;;;;;123.45;55.72;;;;;;;;;;7329815;19;161713;-14
2022/03/26 19:11:14;;;;;;;129.10;58.17;;;;;;;;;;7329321;19;162348;-15
2022/03/26 19:13:45;;;;;;;124.50;57.75;;;;;;;;;;7331071;19;153691;-16
2022/03/26 19:16:17;;;;;;;135.48;59.75;;;;;;;;;;7327689;19;153675;-15
2022/03/26 19:18:51;;;;;;;141.50;60.90;;;;;;;;;;7332097;19;161878;-16
2022/03/26 19:21:26;;;;;;;136.40;59.65;;;;;;;;;;7326663;19;162312;-14
2022/03/26 19:24:00;;;;;;;119.55;54.60;;;;;;;;;;7332231;19;153985;-14
2022/03/26 19:26:32;;;;;;;117.72;54.47;;;;;;;;;;7329298;19;153406;-16
2022/03/26 19:31:47;;;;;;;119.95;54.95;;;;;;;;;;7330299;19;162177;-15
2022/03/26 19:34:23;;;;;;;125.43;56.17;;;;;;;;;;7335993;19;154109;-15
2022/03/26 19:36:56;;;;;;;119.65;56.60;;;;;;;;;;7336863;19;153963;-16
2022/03/26 19:39:27;;;;;;;123.60;55.80;;;;;;;;;;7335540;19;162110;-14
2022/03/26 19:41:58;;;;;;;115.55;54.03;;;;;;;;;;7337702;19;162584;-15
2022/03/26 19:44:29;;;;;;;124.32;54.22;;;;;;;;;;7337142;19;154013;-16
2022/03/26 19:47:00;;;;;;;113.43;53.25;;;;;;;;;;7335413;19;153620;-17
2022/03/26 19:49:37;;;;;;;116.30;54.67;;;;;;;;;;7338150;19;162032;-16
2022/03/26 19:52:11;;;;;;;117.80;54.70;;;;;;;;;;7337216;19;162396;-15
2022/03/26 19:54:42;;;;;;;116.93;52.65;;;;;;;;;;7335377;19;153922;-16
2022/03/26 19:57:14;;;;;;;112.38;51.92;;;;;;;;;;7332658;19;153842;-17
2022/03/26 19:59:49;;;;;;;1570.72;712.58;;;;;;;;;;7335156;19;161883;-15
2022/03/26 20:02:20;;;;;;;1740.65;767.47;;;;;;;;;;7335195;19;162654;-15
2022/03/26 20:04:54;;;;;;;962.65;511.00;;;;;;;;;;7339078;19;154101;-15
2022/03/26 20:07:26;;;;;;;708.22;375.05;;;;;;;;;;7335991;19;153678;-16
2022/03/26 20:09:57;;;;;;;663.15;327.75;;;;;;;;;;7337774;19;161788;-16
2022/03/26 20:12:29;;;;;;;604.60;301.20;;;;;;;;;;7338348;19;162356;-15
2022/03/26 20:15:00;;;;;;;602.22;314.65;;;;;;;;;;7337139;19;154167;-16
2022/03/26 20:20:20;;;;;;;838.50;430.05;;;;;;;;;;7332358;19;161804;-14
2022/03/26 20:22:52;;;;;;;799.63;424.90;;;;;;;;;;7334360;19;162397;-14
2022/03/26 20:25:23;;;;;;;756.47;399.92;;;;;;;;;;7334474;19;153946;-15
2022/03/26 20:27:55;;;;;;;707.90;379.77;;;;;;;;;;7336439;19;153444;-15
2022/03/26 20:30:26;;;;;;;713.42;374.63;;;;;;;;;;7334487;19;161856;-14
2022/03/26 20:32:57;;;;;;;685.22;359.83;;;;;;;;;;7336169;19;162402;-15
2022/03/26 20:35:32;;;;;;;687.50;362.65;;;;;;;;;;7337522;19;154039;-16
2022/03/26 20:38:03;;;;;;;685.88;357.23;;;;;;;;;;7337364;19;153913;-16
2022/03/26 20:40:35;;;;;;;687.50;361.33;;;;;;;;;;7333525;19;162051;-15
2022/03/26 20:43:09;;;;;;;647.08;343.73;;;;;;;;;;7332648;19;162402;-15
2022/03/26 20:45:40;;;;;;;659.78;352.42;;;;;;;;;;7334218;19;154078;-14
2022/03/26 20:48:12;;;;;;;662.97;357.63;;;;;;;;;;7333917;19;154423;-15
2022/03/26 20:50:46;;;;;;;654.63;349.65;;;;;;;;;;7333500;19;161961;-15
2022/03/26 20:53:18;;;;;;;639.45;334.95;;;;;;;;;;7333476;19;162030;-16
2022/03/26 20:55:51;;;;;;;650.65;348.15;;;;;;;;;;7333607;19;154134;-15
2022/03/26 20:58:24;;;;;;;631.10;341.63;;;;;;;;;;7333561;19;153697;-14
2022/03/26 21:00:57;;;;;;;629.53;339.23;;;;;;;;;;7333672;19;162052;-17
2022/03/26 21:03:28;;;;;;;;;;;;;;;;;;7337779;19;162366;-16
2022/03/26 21:06:02;;;;;;;620.05;324.48;;;;;;;;;;7334700;19;154256;-16
2022/03/26 21:08:33;;;;;;;620.35;330.45;;;;;;;;;;7333385;19;153961;-14
2022/03/26 21:11:05;;;;;;;630.80;344.50;;;;;;;;;;7333019;19;162104;-14
2022/03/26 21:13:37;;;;;;;616.72;325.85;;;;;;;;;;7336918;19;162530;-15
2022/03/26 21:16:25;;;;;;;594.35;316.38;;;;;;;;;;7332646;19;153872;-15
2022/03/26 21:18:58;;;;;;;601.80;317.35;;;;;;;;;;7333156;19;153976;-13
2022/03/26 21:21:33;;;;;;;609.85;320.33;;;;;;;;;;7334231;19;162048;-16
2022/03/26 21:24:04;;;;;;;600.22;320.95;;;;;;;;;;7332396;19;162447;-15
2022/03/26 21:26:35;;;;;;;598.83;320.20;;;;;;;;;;7334405;19;154657;-15
2022/03/26 21:29:06;;;;;;;579.83;307.63;;;;;;;;;;7332887;19;153817;-14
2022/03/26 21:31:38;;;;;;;585.65;315.13;;;;;;;;;;7332663;19;162135;-16
2022/03/26 21:34:09;;;;;;;584.95;310.60;;;;;;;;;;7332582;19;162425;-15
2022/03/26 21:36:43;;;;;;;593.50;317.70;;;;;;;;;;7332122;19;154039;-16
2022/03/26 21:39:15;;;;;;;571.83;316.98;;;;;;;;;;7332355;19;153881;-13
2022/03/26 21:41:46;;;;;;;572.35;301.63;;;;;;;;;;7332123;19;162012;-16
2022/03/26 21:44:17;;;;;;;558.60;301.95;;;;;;;;;;7332051;19;162879;-15
2022/03/26 21:46:49;;;;;;;559.67;315.85;;;;;;;;;;7332537;19;153999;-16
2022/03/26 21:49:20;;;;;;;550.70;294.92;;;;;;;;;;7332125;19;153929;-17
2022/03/26 21:51:54;;;;;;;551.33;302.77;;;;;;;;;;7331953;19;161787;-17
2022/03/26 21:54:25;;;;;;;554.88;301.25;;;;;;;;;;7329437;19;162411;-15
2022/03/26 21:56:57;;;;;;;542.72;291.17;;;;;;;;;;7331421;19;154087;-15
2022/03/26 21:59:28;;;;;;;545.88;291.45;;;;;;;;;;7331947;19;153682;-16
2022/03/26 22:01:59;;;;;;;529.75;285.60;;;;;;;;;;7331782;19;161588;-14
2022/03/26 22:04:30;;;;;;;521.83;279.42;;;;;;;;;;7331692;19;162461;-15
2022/03/26 22:07:05;;;;;;;514.42;271.50;;;;;;;;;;7331777;19;154000;-16
2022/03/26 22:09:36;;;;;;;518.80;282.38;;;;;;;;;;7331651;19;153728;-16
2022/03/26 22:12:08;;;;;;;517.00;287.00;;;;;;;;;;7331223;19;161827;-16
2022/03/26 22:14:39;;;;;;;515.28;275.48;;;;;;;;;;7331240;19;162427;-16
2022/03/26 22:17:11;;;;;;;504.02;273.77;;;;;;;;;;7332959;19;154148;-15
2022/03/26 22:19:42;;;;;;;509.40;269.30;;;;;;;;;;7333674;19;153870;-17
2022/03/26 22:22:16;;;;;;;509.85;276.50;;;;;;;;;;7330825;19;161809;-16
2022/03/26 22:24:48;;;;;;;501.17;269.63;;;;;;;;;;7334462;19;163058;-15
2022/03/26 22:27:19;;;;;;;511.20;277.58;;;;;;;;;;7332518;19;154008;-15
2022/03/26 22:29:50;;;;;;;471.55;245.43;;;;;;;;;;7335418;19;154293;-15
2022/03/26 22:32:21;;;;;;;492.70;261.75;;;;;;;;;;7330516;19;161742;-15
2022/03/26 22:35:07;;;;;;;491.63;265.58;;;;;;;;;;7330698;19;162400;-16
2022/03/26 22:37:41;;;;;;;494.20;268.97;;;;;;;;;;7329727;19;154181;-16
2022/03/26 22:40:21;;;;;;;470.17;255.45;;;;;;;;;;7331813;19;153766;-16
2022/03/26 22:42:54;;;;;;;481.08;263.20;;;;;;;;;;7334835;19;161876;-15
2022/03/26 22:45:28;;;;;;;499.85;278.60;;;;;;;;;;7331040;19;162016;-15
2022/03/26 22:48:01;;;;;;;469.38;249.52;;;;;;;;;;7333628;19;153996;-16
2022/03/26 22:50:33;;;;;;;;;;;;;;;;;;7332900;19;154047;-16
2022/03/26 22:53:07;;;;;;;477.23;251.32;;;;;;;;;;7332185;19;162193;-16
2022/03/26 22:55:40;;;;;;;462.67;245.60;;;;;;;;;;7329975;19;162412;-16
2022/03/26 22:58:12;;;;;;;467.15;242.32;;;;;;;;;;7331795;19;154187;-16
2022/03/26 23:01:14;;;;;;;467.63;247.48;;;;;;;;;;7330929;19;153746;-16
2022/03/26 23:03:46;;;;;;;459.15;236.55;;;;;;;;;;7331957;19;161911;-15
2022/03/26 23:06:17;;;;;;;453.70;239.88;;;;;;;;;;7329757;19;161731;-15
2022/03/26 23:08:51;;;;;;;452.08;235.52;;;;;;;;;;7333329;19;154008;-15
2022/03/26 23:11:23;;;;;;;451.65;233.45;;;;;;;;;;7332237;19;153711;-17
2022/03/26 23:13:54;;;;;;;326.83;156.57;;;;;;;;;;7332920;19;161778;-16
2022/03/26 23:16:26;;;;;;;373.65;188.32;;;;;;;;;;7331348;19;162336;-15
2022/03/26 23:18:57;;;;;;;394.55;193.60;;;;;;;;;;7330927;19;154022;-15
2022/03/26 23:21:29;;;;;;;391.00;199.88;;;;;;;;;;7329988;19;153787;-15
2022/03/26 23:24:03;;;;;;;410.15;213.38;;;;;;;;;;7332229;19;161820;-15
2022/03/26 23:26:34;;;;;;;416.40;215.52;;;;;;;;;;7332035;19;162344;-16
2022/03/26 23:29:06;;;;;;;423.65;210.52;;;;;;;;;;7332958;19;154087;-16
2022/03/26 23:31:38;;;;;;;405.50;204.20;;;;;;;;;;7331824;19;153675;-15
2022/03/26 23:34:12;;;;;;;403.10;214.20;;;;;;;;;;7331787;19;161723;-16
2022/03/26 23:36:43;;;;;;;388.52;206.85;;;;;;;;;;7332252;19;162363;-16
2022/03/26 23:39:17;;;;;;;397.35;203.75;;;;;;;;;;7330512;19;155839;-15
2022/03/26 23:41:48;;;;;;;390.88;200.18;;;;;;;;;;7331940;19;153931;-16
2022/03/26 23:44:20;;;;;;;387.05;193.38;;;;;;;;;;7330170;19;161570;-14
2022/03/26 23:46:51;;;;;;;387.25;199.20;;;;;;;;;;7331291;19;162543;-15
2022/03/26 23:49:22;;;;;;;379.70;203.82;;;;;;;;;;7331978;19;154139;-15
2022/03/26 23:51:54;;;;;;;396.52;203.68;;;;;;;;;;7332059;19;153662;-14
2022/03/26 23:54:28;;;;;;;381.00;196.90;;;;;;;;;;7331205;19;161921;-15
2022/03/26 23:57:00;;;;;;;377.58;199.25;;;;;;;;;;7330811;19;162882;-16
2022/03/26 23:59:31;;;;;;;375.75;198.68;;;;;;;;;;7328928;19;154182;-16
